Aérodrome :
LOGIN :

S'inscrire | Disclaimer

   EN    FR    IT 

 










Légende :    VFR   VFR Marginal   IFR   IFR Intensif   IFR Très Intensif
Visi : 
Plafond : 
>= 8 km
>= 3000ft
5 à 8 km
1000 à 3000 ft
1500m à 5 km
500 à 1000 ft
800 à 1500m
200 à 500 ft
< 800m
< 200 ft
Symboles :   Orages  Brouillard  Fortes neiges  Fortes précipitations  Vent > 20 kt
SIGMETs :   Divers  Orages  Givrage  Turbulence  Onde Orograph.  Cendres Volcan.







- Altitude de l'aérodrome : 164 ft
- Code IATA : VBY


ESSV - Visby

DERNIER METAR :
  • 211850Z 24015KT 9999 FEW021 12/10 Q0998

METARs EXPIRÉS :
  • 211820Z 24015KT 9999 SCT015 13/10 Q0998
  • 211750Z 22018KT 9999 SHRA SCT032CB 13/11 Q0998
  • 211720Z 21015KT 9999 FEW015 SCT032 BKN064 14/11 Q0998
  • 211650Z 21015KT 9999 FEW015 SCT032 BKN064 13/11 Q0999
  • 211620Z 21017KT 9999 SCT015 13/11 Q0999

TAF TAF ESSV
Valide du 21 à 18h jusqu'au 21 à 22h UTC


211730Z 2118/2122 24015KT 9999 BKN040
PROB40 2118/2122 SHRA BKN025CB
Pas de NOTAMs connus pour ce terrain.



MET'MAP, la Météo Aéronautique d'un coup d'oeil ! - Copyright ORBIFLY Décembre 2007 - Disclaimer

ORBIFLY MET'MAP TEAM :

Programmation & Développement : Alexandra Zaïnal
Conception & Développement : Baudouin d'Aumeries
Co-Programmation & Développement : Marc-Olivier Méhu
Soutien technique & logistique : Manuel Goepfert

Contact : metmap@orbifly.com




SOURCES & CREDITS :

   NOAA